createdAt,value
2019-02-14T00:01:09.830Z,6.50
2019-02-14T00:03:41.068Z,6.50
2019-02-14T00:06:14.226Z,6.60
2019-02-14T00:08:46.917Z,6.60
2019-02-14T00:11:17.947Z,6.70
2019-02-14T00:13:49.449Z,6.60
2019-02-14T00:16:20.539Z,6.60
2019-02-14T00:18:51.321Z,6.60
2019-02-14T00:21:22.382Z,6.60
2019-02-14T00:23:53.140Z,6.60
2019-02-14T00:26:24.302Z,6.70
2019-02-14T00:28:55.344Z,6.60
2019-02-14T00:31:27.053Z,6.70
2019-02-14T00:33:58.068Z,6.70
2019-02-14T00:36:29.130Z,6.80
2019-02-14T00:39:00.265Z,6.80
2019-02-14T00:41:33.192Z,6.80
2019-02-14T00:44:04.221Z,6.80
2019-02-14T00:46:34.844Z,6.80
2019-02-14T00:49:05.426Z,6.70
2019-02-14T00:51:36.345Z,6.70
2019-02-14T00:54:07.618Z,6.80
2019-02-14T00:56:38.571Z,6.80
2019-02-14T00:59:09.204Z,6.80
2019-02-14T01:01:39.755Z,6.80
2019-02-14T01:04:10.940Z,6.80
2019-02-14T01:06:42.111Z,6.70
2019-02-14T01:09:14.022Z,6.80
2019-02-14T01:11:45.429Z,6.90
2019-02-14T01:14:16.913Z,7.00
2019-02-14T01:16:48.146Z,7.00
2019-02-14T01:19:19.122Z,7.00
2019-02-14T01:21:50.862Z,7.00
2019-02-14T01:24:22.114Z,6.90
2019-02-14T01:26:53.202Z,6.90
2019-02-14T01:29:24.216Z,7.00
2019-02-14T01:31:55.421Z,6.80
2019-02-14T01:34:26.955Z,6.70
2019-02-14T01:36:57.476Z,6.60
2019-02-14T01:39:28.719Z,6.60
2019-02-14T01:41:59.248Z,6.60
2019-02-14T01:44:30.364Z,6.60
2019-02-14T01:47:01.709Z,6.60
2019-02-14T01:49:32.925Z,6.60
2019-02-14T01:52:05.232Z,6.60
2019-02-14T01:54:37.299Z,6.60
2019-02-14T01:57:08.963Z,6.60
2019-02-14T01:59:40.383Z,6.60
2019-02-14T02:02:12.226Z,6.50
2019-02-14T02:04:43.277Z,6.40
2019-02-14T02:07:14.773Z,6.50
2019-02-14T02:09:45.884Z,6.50
2019-02-14T02:12:16.740Z,6.50
2019-02-14T02:14:48.484Z,6.50
2019-02-14T02:17:19.412Z,6.50
2019-02-14T02:19:50.812Z,6.50
2019-02-14T02:22:22.587Z,6.50
2019-02-14T02:24:53.400Z,6.40
2019-02-14T02:27:24.394Z,6.50
2019-02-14T02:29:55.378Z,6.40
2019-02-14T02:32:26.287Z,6.40
2019-02-14T02:34:57.241Z,6.40
2019-02-14T02:37:28.787Z,6.40
2019-02-14T02:40:00.316Z,6.30
2019-02-14T02:42:31.419Z,6.40
2019-02-14T02:45:02.370Z,6.40
2019-02-14T02:47:33.864Z,6.40
2019-02-14T02:50:06.007Z,6.40
2019-02-14T02:52:38.181Z,6.50
2019-02-14T02:55:09.285Z,6.40
2019-02-14T02:57:41.459Z,6.30
2019-02-14T03:00:15.833Z,6.30
2019-02-14T03:02:46.779Z,6.40
2019-02-14T03:05:20.878Z,6.40
2019-02-14T03:07:52.436Z,6.40
2019-02-14T03:10:23.858Z,6.40
2019-02-14T03:12:54.743Z,6.40
2019-02-14T03:15:26.043Z,6.40
2019-02-14T03:17:56.621Z,6.40
2019-02-14T03:20:27.545Z,6.40
2019-02-14T03:22:58.665Z,6.30
2019-02-14T03:25:29.921Z,6.30
2019-02-14T03:28:01.043Z,6.30
2019-02-14T03:30:32.139Z,6.30
2019-02-14T03:33:03.688Z,6.30
2019-02-14T03:35:34.368Z,6.30
2019-02-14T03:38:04.982Z,6.30
2019-02-14T03:40:35.821Z,6.30
2019-02-14T03:43:06.459Z,6.30
2019-02-14T03:45:37.865Z,6.30
2019-02-14T03:48:08.858Z,6.30
2019-02-14T03:50:40.752Z,6.30
2019-02-14T03:53:11.777Z,6.20
2019-02-14T03:55:43.201Z,6.20
2019-02-14T03:58:14.629Z,6.20
2019-02-14T04:00:46.299Z,6.20
2019-02-14T04:03:19.065Z,6.20
2019-02-14T04:05:49.980Z,6.30
2019-02-14T04:08:21.556Z,6.30
2019-02-14T04:10:52.626Z,6.30
2019-02-14T04:13:23.317Z,6.30
2019-02-14T04:15:55.642Z,6.30
2019-02-14T04:18:26.477Z,6.40
2019-02-14T04:20:59.715Z,6.40
2019-02-14T04:23:30.689Z,6.40
2019-02-14T04:26:02.375Z,6.40
2019-02-14T04:28:33.142Z,6.40
2019-02-14T04:31:04.063Z,6.40
2019-02-14T04:33:34.829Z,6.40
2019-02-14T04:36:05.941Z,6.40
2019-02-14T04:38:36.706Z,6.40
2019-02-14T04:41:09.543Z,6.40
2019-02-14T04:43:40.565Z,6.40
2019-02-14T04:46:11.345Z,6.50
2019-02-14T04:48:42.586Z,6.50
2019-02-14T04:51:13.611Z,6.40
2019-02-14T04:53:44.392Z,6.40
2019-02-14T04:56:15.541Z,6.40
2019-02-14T04:58:46.336Z,6.30
2019-02-14T05:01:17.411Z,6.30
2019-02-14T05:03:49.771Z,6.40
2019-02-14T05:06:21.059Z,6.30
2019-02-14T05:08:52.008Z,6.40
2019-02-14T05:11:23.047Z,6.40
2019-02-14T05:13:55.029Z,6.50
2019-02-14T05:16:25.600Z,6.50
2019-02-14T05:18:56.182Z,6.50
2019-02-14T05:21:27.761Z,6.50
2019-02-14T05:23:58.499Z,6.50
2019-02-14T05:26:29.378Z,6.50
2019-02-14T05:29:00.682Z,6.60
2019-02-14T05:31:31.653Z,6.60
2019-02-14T05:34:02.685Z,6.50
2019-02-14T05:36:34.046Z,6.50
2019-02-14T05:39:06.195Z,6.50
2019-02-14T05:41:37.275Z,6.50
2019-02-14T05:44:09.650Z,6.40
2019-02-14T05:46:41.464Z,6.50
2019-02-14T05:49:12.386Z,6.40
2019-02-14T05:51:45.102Z,6.50
2019-02-14T05:54:15.860Z,6.50
2019-02-14T05:56:47.842Z,6.50
2019-02-14T05:59:21.704Z,6.50
2019-02-14T06:01:52.706Z,6.50
2019-02-14T06:04:24.083Z,6.50
2019-02-14T06:07:00.891Z,6.60
2019-02-14T06:09:27.500Z,6.40
2019-02-14T06:11:58.895Z,6.50
2019-02-14T06:14:30.541Z,6.50
2019-02-14T06:17:01.511Z,6.50
2019-02-14T06:19:33.083Z,6.50
2019-02-14T06:22:04.623Z,6.40
2019-02-14T06:24:36.427Z,6.50
2019-02-14T06:27:07.867Z,6.50
2019-02-14T06:29:38.741Z,6.50
2019-02-14T06:32:09.702Z,6.50
2019-02-14T06:34:40.519Z,6.50
2019-02-14T06:37:11.799Z,6.40
2019-02-14T06:39:42.914Z,6.40
2019-02-14T06:42:13.671Z,6.40
2019-02-14T06:44:45.821Z,6.40
2019-02-14T06:47:16.740Z,6.40
2019-02-14T06:49:47.617Z,6.40
2019-02-14T06:52:18.983Z,6.50
2019-02-14T06:54:50.244Z,6.40
2019-02-14T06:57:21.291Z,6.40
2019-02-14T06:59:52.092Z,6.40
2019-02-14T07:02:23.466Z,6.50
2019-02-14T07:04:55.011Z,6.50
2019-02-14T07:07:26.020Z,6.50
2019-02-14T07:09:57.688Z,6.50
2019-02-14T07:12:28.425Z,6.50
2019-02-14T07:14:59.240Z,6.50
2019-02-14T07:17:29.939Z,6.40
2019-02-14T07:20:01.162Z,6.50
2019-02-14T07:22:32.603Z,6.50
2019-02-14T07:25:04.160Z,6.50
2019-02-14T07:27:35.783Z,6.50
2019-02-14T07:30:10.218Z,6.50
2019-02-14T07:32:41.370Z,6.50
2019-02-14T07:35:13.170Z,6.60
2019-02-14T07:37:44.102Z,6.60
2019-02-14T07:40:15.609Z,6.60
2019-02-14T07:42:46.403Z,6.60
2019-02-14T07:45:17.197Z,6.60
2019-02-14T07:47:47.971Z,6.60
2019-02-14T07:50:18.582Z,6.50
2019-02-14T07:52:49.540Z,6.50
2019-02-14T07:55:20.795Z,6.50
2019-02-14T07:57:52.224Z,6.50
2019-02-14T08:00:23.657Z,6.50
2019-02-14T08:02:56.361Z,6.50
2019-02-14T08:05:27.177Z,6.60
2019-02-14T08:07:58.401Z,6.70
2019-02-14T08:10:29.466Z,6.80
2019-02-14T08:13:00.600Z,6.70
2019-02-14T08:15:32.295Z,6.90
2019-02-14T08:18:03.617Z,6.90
2019-02-14T08:20:35.862Z,6.90
2019-02-14T08:23:06.740Z,6.90
2019-02-14T08:25:38.100Z,7.00
2019-02-14T08:28:09.201Z,7.00
2019-02-14T08:30:40.303Z,7.10
2019-02-14T08:33:11.596Z,7.20
2019-02-14T08:35:42.765Z,7.40
2019-02-14T08:38:15.116Z,7.60
2019-02-14T08:40:47.233Z,7.50
2019-02-14T08:43:18.271Z,7.60
2019-02-14T08:45:49.219Z,7.70
2019-02-14T08:48:20.022Z,7.80
2019-02-14T08:50:51.103Z,7.80
2019-02-14T08:53:22.813Z,7.60
2019-02-14T08:55:53.985Z,7.60
2019-02-14T08:58:25.064Z,7.60
2019-02-14T09:00:55.985Z,7.60
2019-02-14T09:03:26.984Z,7.70
2019-02-14T09:05:58.259Z,7.70
2019-02-14T09:08:29.627Z,7.80
2019-02-14T09:11:00.881Z,7.80
2019-02-14T09:13:32.061Z,7.80
2019-02-14T09:16:04.385Z,7.60
2019-02-14T09:18:35.209Z,7.60
2019-02-14T09:21:06.006Z,7.70
2019-02-14T09:23:37.473Z,7.70
2019-02-14T09:26:08.573Z,7.70
2019-02-14T09:28:39.924Z,7.60
2019-02-14T09:31:11.457Z,7.70
2019-02-14T09:33:44.102Z,7.70
2019-02-14T09:36:15.557Z,7.60
2019-02-14T09:38:47.277Z,7.60
2019-02-14T09:41:18.413Z,7.60
2019-02-14T09:43:50.349Z,7.70
2019-02-14T09:46:21.596Z,7.80
2019-02-14T09:48:54.956Z,7.80
2019-02-14T09:51:26.648Z,7.90
2019-02-14T09:53:58.685Z,8.10
2019-02-14T09:56:29.466Z,7.90
2019-02-14T09:59:01.107Z,7.90
2019-02-14T10:01:33.015Z,8.00
2019-02-14T10:04:03.957Z,7.90
2019-02-14T10:06:36.938Z,7.90
2019-02-14T10:09:11.021Z,7.90
2019-02-14T10:11:43.062Z,7.90
2019-02-14T10:14:14.209Z,7.90
2019-02-14T10:16:46.789Z,8.10
2019-02-14T10:19:19.842Z,8.10
2019-02-14T10:21:51.030Z,8.00
2019-02-14T10:24:23.424Z,8.00
2019-02-14T10:26:55.631Z,8.00
2019-02-14T10:29:26.820Z,8.00
2019-02-14T10:31:58.110Z,8.00
2019-02-14T10:34:29.496Z,8.10
2019-02-14T10:37:00.844Z,8.10
2019-02-14T10:39:33.342Z,8.10
2019-02-14T10:42:04.672Z,8.10
2019-02-14T10:44:36.233Z,8.10
2019-02-14T10:47:07.313Z,8.00
2019-02-14T10:49:38.545Z,8.10
2019-02-14T10:52:09.850Z,8.00
2019-02-14T10:54:40.988Z,8.10
2019-02-14T10:57:11.874Z,8.20
2019-02-14T10:59:43.661Z,8.20
2019-02-14T11:02:15.527Z,8.30
2019-02-14T11:04:47.564Z,8.40
2019-02-14T11:07:19.266Z,8.30
2019-02-14T11:09:50.305Z,8.30
2019-02-14T11:12:22.001Z,8.20
2019-02-14T11:14:53.948Z,8.10
2019-02-14T11:17:24.785Z,8.10
2019-02-14T11:19:55.605Z,8.10
2019-02-14T11:22:26.831Z,8.10
2019-02-14T11:24:59.223Z,8.10
2019-02-14T11:27:31.068Z,8.20
2019-02-14T11:30:04.944Z,8.30
2019-02-14T11:32:36.035Z,8.30
2019-02-14T11:35:07.645Z,8.30
2019-02-14T11:37:39.112Z,8.20
2019-02-14T11:40:11.828Z,8.20
2019-02-14T11:42:43.111Z,8.30
2019-02-14T11:45:16.994Z,8.30
2019-02-14T11:47:48.327Z,8.40
2019-02-14T11:50:19.432Z,8.50
2019-02-14T11:52:50.634Z,8.60
2019-02-14T11:55:21.894Z,8.60
2019-02-14T11:57:53.991Z,8.60
2019-02-14T12:00:26.319Z,8.50
2019-02-14T12:02:57.671Z,8.40
2019-02-14T12:05:28.354Z,8.40
2019-02-14T12:08:00.352Z,8.30
2019-02-14T12:10:31.547Z,8.30
2019-02-14T12:13:02.184Z,8.40
2019-02-14T12:15:33.256Z,8.40
2019-02-14T12:18:04.267Z,8.50
2019-02-14T12:20:35.070Z,8.60
2019-02-14T12:23:06.465Z,8.60
2019-02-14T12:25:39.712Z,8.70
2019-02-14T12:28:10.554Z,8.70
2019-02-14T12:30:41.286Z,8.60
2019-02-14T12:33:11.964Z,8.50
2019-02-14T12:35:43.102Z,8.60
2019-02-14T12:38:13.943Z,8.60
2019-02-14T12:40:45.203Z,8.60
2019-02-14T12:43:16.630Z,8.60
2019-02-14T12:45:48.259Z,8.50
2019-02-14T12:48:19.588Z,8.50
2019-02-14T12:50:50.427Z,8.40
2019-02-14T12:53:21.574Z,8.40
2019-02-14T12:55:52.457Z,8.40
2019-02-14T12:58:24.034Z,8.40
2019-02-14T13:00:54.955Z,8.40
2019-02-14T13:03:27.117Z,8.40
2019-02-14T13:05:58.910Z,8.30
2019-02-14T13:08:30.470Z,8.30
2019-02-14T13:11:01.960Z,8.40
2019-02-14T13:13:33.623Z,8.50
2019-02-14T13:16:06.005Z,8.60
2019-02-14T13:18:37.112Z,8.60
2019-02-14T13:21:08.317Z,8.70
2019-02-14T13:23:39.412Z,8.70
2019-02-14T13:26:10.374Z,8.60
2019-02-14T13:28:42.074Z,8.60
2019-02-14T13:31:12.994Z,8.40
2019-02-14T13:33:43.993Z,8.40
2019-02-14T13:36:14.593Z,8.50
2019-02-14T13:38:45.652Z,8.40
2019-02-14T13:41:16.521Z,8.40
2019-02-14T13:43:47.421Z,8.40
2019-02-14T13:46:18.635Z,8.30
2019-02-14T13:48:49.522Z,8.20
2019-02-14T13:51:21.370Z,8.20
2019-02-14T13:53:52.229Z,8.20
2019-02-14T13:56:23.637Z,8.10
2019-02-14T13:58:54.671Z,8.10
2019-02-14T14:01:25.635Z,8.10
2019-02-14T14:03:59.504Z,8.00
2019-02-14T14:06:30.438Z,8.00
2019-02-14T14:09:01.550Z,8.10
2019-02-14T14:11:32.963Z,8.10
2019-02-14T14:14:03.990Z,8.10
2019-02-14T14:16:35.274Z,8.10
2019-02-14T14:19:06.710Z,8.20
2019-02-14T14:21:37.987Z,8.10
2019-02-14T14:24:08.829Z,8.00
2019-02-14T14:26:39.699Z,8.00
2019-02-14T14:29:11.048Z,8.00
2019-02-14T14:31:42.833Z,8.10
2019-02-14T14:34:14.502Z,8.30
2019-02-14T14:36:45.953Z,8.30
2019-02-14T14:39:16.711Z,8.40
2019-02-14T14:41:47.625Z,8.50
2019-02-14T14:44:53.452Z,8.60
2019-02-14T14:47:26.457Z,8.60
2019-02-14T14:49:57.266Z,8.60
2019-02-14T14:52:31.042Z,8.60
2019-02-14T14:55:02.221Z,8.60
2019-02-14T14:57:33.208Z,8.50
2019-02-14T15:00:05.843Z,8.40
2019-02-14T15:02:36.794Z,8.50
2019-02-14T15:05:08.108Z,8.40
2019-02-14T15:07:39.607Z,8.40
2019-02-14T15:10:10.430Z,8.50
2019-02-14T15:12:41.720Z,8.50
2019-02-14T15:15:13.616Z,8.60
2019-02-14T15:17:45.457Z,8.50
2019-02-14T15:20:16.448Z,8.60
2019-02-14T15:22:47.517Z,8.40
2019-02-14T15:25:18.531Z,8.40
2019-02-14T15:27:50.235Z,8.40
2019-02-14T15:30:21.506Z,8.30
2019-02-14T15:32:53.971Z,8.40
2019-02-14T15:35:25.526Z,8.40
2019-02-14T15:37:56.892Z,8.50
2019-02-14T15:40:28.928Z,8.40
2019-02-14T15:43:00.324Z,8.30
2019-02-14T15:45:31.311Z,8.20
2019-02-14T15:48:03.120Z,8.30
2019-02-14T15:50:34.642Z,8.20
2019-02-14T15:53:07.601Z,8.20
2019-02-14T15:55:39.075Z,8.20
2019-02-14T15:58:21.983Z,8.20
2019-02-14T16:00:54.298Z,8.20
2019-02-14T16:03:25.528Z,8.20
2019-02-14T16:05:58.420Z,8.10
2019-02-14T16:08:30.066Z,8.00
2019-02-14T16:11:02.111Z,8.00
2019-02-14T16:13:36.078Z,8.00
2019-02-14T16:16:07.313Z,7.90
2019-02-14T16:18:39.591Z,7.90
2019-02-14T16:21:10.899Z,7.90
2019-02-14T16:23:42.745Z,7.80
2019-02-14T16:26:14.904Z,7.80
2019-02-14T16:28:47.124Z,7.70
2019-02-14T16:31:18.036Z,7.80
2019-02-14T16:33:49.791Z,7.80
2019-02-14T16:36:22.632Z,7.80
2019-02-14T16:38:56.318Z,7.80
2019-02-14T16:41:26.199Z,7.70
2019-02-14T16:43:57.839Z,7.80
2019-02-14T16:46:30.238Z,7.80
2019-02-14T16:49:01.581Z,7.90
2019-02-14T16:51:32.865Z,7.80
2019-02-14T16:54:04.066Z,7.90
2019-02-14T16:56:35.030Z,7.80
2019-02-14T16:59:06.327Z,7.70
2019-02-14T17:01:38.632Z,7.80
2019-02-14T17:04:10.100Z,7.90
2019-02-14T17:06:42.025Z,8.00
2019-02-14T17:09:14.417Z,8.00
2019-02-14T17:11:45.941Z,8.00
2019-02-14T17:14:17.634Z,8.00
2019-02-14T17:16:49.543Z,8.00
2019-02-14T17:19:22.082Z,8.00
2019-02-14T17:21:53.966Z,8.10
2019-02-14T17:24:26.004Z,8.20
2019-02-14T17:26:58.020Z,8.30
2019-02-14T17:29:30.910Z,8.30
2019-02-14T17:32:02.686Z,8.20
2019-02-14T17:34:34.302Z,8.00
2019-02-14T17:37:05.887Z,8.10
2019-02-14T17:39:37.853Z,8.00
2019-02-14T17:42:10.181Z,8.00
2019-02-14T17:44:42.257Z,7.90
2019-02-14T17:47:14.596Z,7.90
2019-02-14T17:49:47.240Z,8.00
2019-02-14T17:52:19.030Z,8.10
2019-02-14T17:54:50.776Z,8.20
2019-02-14T17:57:21.813Z,8.30
2019-02-14T17:59:53.148Z,8.20
2019-02-14T18:02:25.425Z,8.20
2019-02-14T18:04:57.234Z,8.10
2019-02-14T18:07:29.945Z,7.90
2019-02-14T18:10:02.403Z,7.90
2019-02-14T18:12:33.887Z,7.90
2019-02-14T18:15:05.871Z,7.90
2019-02-14T18:17:37.968Z,7.80
2019-02-14T18:20:11.500Z,7.80
2019-02-14T18:22:42.384Z,7.90
2019-02-14T18:25:14.672Z,8.00
2019-02-14T18:27:46.656Z,8.00
2019-02-14T18:30:18.422Z,7.90
2019-02-14T18:32:50.350Z,8.10
2019-02-14T18:35:23.067Z,8.10
2019-02-14T18:37:54.038Z,8.20
2019-02-14T18:40:25.774Z,8.40
2019-02-14T18:42:57.102Z,8.30
2019-02-14T18:45:28.717Z,8.20
2019-02-14T18:48:00.221Z,8.20
2019-02-14T18:50:31.865Z,8.30
2019-02-14T18:53:04.302Z,8.20
2019-02-14T18:55:36.318Z,8.20
2019-02-14T18:58:09.140Z,8.20
2019-02-14T19:00:40.952Z,8.20
2019-02-14T19:03:11.954Z,8.20
2019-02-14T19:05:44.777Z,8.20
2019-02-14T19:08:15.808Z,8.10
2019-02-14T19:10:48.556Z,8.00
2019-02-14T19:13:20.476Z,8.10
2019-02-14T19:15:52.420Z,8.10
2019-02-14T19:18:24.288Z,8.20
2019-02-14T19:20:58.239Z,8.20
2019-02-14T19:23:29.626Z,8.10
2019-02-14T19:26:01.305Z,8.10
2019-02-14T19:28:32.917Z,8.10
2019-02-14T19:31:04.546Z,8.10
2019-02-14T19:33:36.924Z,8.10
2019-02-14T19:36:08.094Z,8.10
2019-02-14T19:38:40.548Z,8.10
2019-02-14T19:41:12.459Z,8.10
2019-02-14T19:43:44.820Z,8.00
2019-02-14T19:46:16.667Z,8.10
2019-02-14T19:48:48.826Z,8.20
2019-02-14T19:51:20.992Z,8.20
2019-02-14T19:53:52.764Z,8.00
2019-02-14T19:56:24.294Z,8.00
2019-02-14T19:58:55.372Z,8.10
2019-02-14T20:01:27.111Z,8.10
2019-02-14T20:03:58.269Z,8.20
2019-02-14T20:06:30.445Z,8.20
2019-02-14T20:09:02.254Z,8.10
2019-02-14T20:11:36.879Z,8.00
2019-02-14T20:14:07.099Z,7.80
2019-02-14T20:16:39.220Z,7.70
2019-02-14T20:19:11.843Z,7.90
2019-02-14T20:21:43.871Z,7.80
2019-02-14T20:24:15.878Z,7.80
2019-02-14T20:26:47.940Z,7.90
2019-02-14T20:29:19.786Z,7.90
2019-02-14T20:31:52.340Z,8.00
2019-02-14T20:34:24.601Z,8.10
2019-02-14T20:36:56.025Z,8.20
2019-02-14T20:39:27.513Z,8.20
2019-02-14T20:41:59.110Z,8.30
2019-02-14T20:44:31.163Z,8.40
2019-02-14T20:47:03.232Z,8.40
2019-02-14T20:49:34.419Z,8.40
2019-02-14T20:52:06.061Z,8.30
2019-02-14T20:54:38.520Z,8.30
2019-02-14T20:57:11.411Z,8.00
2019-02-14T20:59:43.754Z,7.90
2019-02-14T21:02:15.666Z,8.00
2019-02-14T21:04:48.185Z,8.00
2019-02-14T21:07:20.225Z,8.10
2019-02-14T21:09:52.286Z,8.10
2019-02-14T21:12:24.440Z,7.90
2019-02-14T21:14:57.609Z,7.80
2019-02-14T21:17:29.368Z,7.90
2019-02-14T21:20:00.662Z,7.80
2019-02-14T21:22:32.458Z,7.70
2019-02-14T21:25:04.200Z,7.70
2019-02-14T21:27:35.399Z,7.70
2019-02-14T21:30:07.548Z,7.60
2019-02-14T21:32:40.216Z,7.80
2019-02-14T21:35:12.090Z,7.80
2019-02-14T21:37:44.022Z,7.80
2019-02-14T21:40:18.516Z,7.80
2019-02-14T21:42:50.897Z,7.80
2019-02-14T21:45:23.137Z,7.80
2019-02-14T21:47:54.805Z,7.90
2019-02-14T21:50:26.682Z,7.90
2019-02-14T21:52:58.549Z,7.80
2019-02-14T21:55:29.909Z,7.80
2019-02-14T21:58:04.599Z,7.80
2019-02-14T22:00:34.064Z,7.80
2019-02-14T22:03:18.272Z,7.90
2019-02-14T22:05:50.118Z,8.00
2019-02-14T22:08:21.383Z,8.00
2019-02-14T22:10:52.530Z,7.90
2019-02-14T22:13:24.850Z,7.90
2019-02-14T22:15:55.870Z,7.90
2019-02-14T22:18:27.701Z,8.00
2019-02-14T22:20:58.831Z,8.00
2019-02-14T22:23:29.907Z,7.90
2019-02-14T22:26:00.504Z,8.00
2019-02-14T22:28:32.622Z,8.00
2019-02-14T22:31:03.448Z,8.00
2019-02-14T22:33:34.907Z,8.00
2019-02-14T22:36:06.738Z,8.10
2019-02-14T22:38:37.905Z,8.00
2019-02-14T22:41:09.151Z,8.10
2019-02-14T22:43:40.345Z,8.10
2019-02-14T22:46:11.549Z,8.10
2019-02-14T22:48:43.567Z,8.10
2019-02-14T22:51:14.432Z,8.10
2019-02-14T22:53:45.711Z,8.10
2019-02-14T22:56:16.615Z,8.10
2019-02-14T22:58:47.829Z,8.00
2019-02-14T23:01:19.250Z,7.90
2019-02-14T23:03:50.047Z,7.70
2019-02-14T23:06:21.984Z,7.60
2019-02-14T23:08:52.991Z,7.60
2019-02-14T23:11:23.736Z,7.60
2019-02-14T23:13:55.218Z,7.60
2019-02-14T23:16:26.419Z,7.50
2019-02-14T23:18:57.425Z,7.50
2019-02-14T23:21:28.782Z,7.40
2019-02-14T23:24:00.276Z,7.40
2019-02-14T23:26:33.825Z,7.40
2019-02-14T23:29:04.673Z,7.40
2019-02-14T23:35:12.816Z,7.50
2019-02-14T23:37:43.503Z,7.40
2019-02-14T23:40:14.383Z,7.40
2019-02-14T23:42:45.384Z,7.40
2019-02-14T23:45:16.241Z,7.20
2019-02-14T23:47:47.205Z,7.10
2019-02-14T23:50:18.000Z,7.00
2019-02-14T23:52:48.605Z,6.90
2019-02-14T23:55:19.807Z,6.90
2019-02-14T23:57:51.972Z,6.70
